Petrosani, Romania
Current Conditions -  °F | °C
As of 1:00 PM on Wednesday 22 Oct 2014 (Local Time) from LRSB Reporting Station
Few Clouds Few Clouds  
Wind Chill: 66°   Ceiling: Unl
Heat Index: 66°   Visibility: 6mi
Dew Point: 48°   Wind: 14mph
Humidity: 52%   Direction: 130°SE
Pressure: 29.56"   Gusts: NA
Location:  45.41°N, 23.38°E
Report Text: LRSB 221000Z 13012KT 9999 FEW045 19/09 Q1001 NOSIG
Loading
Personal Weather Stations






























Interactive Weather Map
Tropical Storm Tracking
New forecast layout! Learn more

10-Day Weather Forecast

Advertisements
Track Severe Weather on mobile